ADDS METAR Data INFO
IDs: Format: Raw Decoded Include TAF

Data at: 1748 UTC 21 Oct 2017

KMRY 211654Z 08006KT 10SM CLR 15/07 A3025 RMK AO2 SLP254 T01500067
KMRY 211554Z 09007KT 10SM CLR 11/06 A3024 RMK AO2 SLP253 T01110061
KMRY 211454Z 08006KT 10SM CLR 08/06 A3023 RMK AO2 SLP250 T00780056 53012
KMRY 211354Z 10006KT 10SM CLR 08/05 A3022 RMK AO2 SLP246 T00780050
KMRY 211254Z 09006KT 10SM CLR 08/06 A3020 RMK AO2 SLP240 T00780056
KMRY 211154Z AUTO 09005KT 10SM CLR 08/06 A3019 RMK AO2 SLP237 T00780056 10128 20078 53001
KMRY 211054Z AUTO 10005KT 10SM CLR 09/06 A3019 RMK AO2 SLP236 T00890061
KMRY 210954Z AUTO 16004KT 10SM CLR 11/07 A3019 RMK AO2 SLP235 T01060067
KMRY 210854Z AUTO 00000KT 10SM CLR 09/06 A3019 RMK AO2 SLP235 T00890061 53002
KMRY 210754Z AUTO 00000KT 10SM CLR 11/07 A3018 RMK AO2 SLP231 T01110072 401720089
KMRY 210654Z AUTO 08003KT 10SM CLR 11/07 A3019 RMK AO2 SLP234 T01060072
KMRY 210554Z AUTO 17003KT 10SM CLR 12/09 A3019 RMK AO2 SLP234 T01170094 10156 20117 51014
KMRY 210454Z AUTO 25003KT 10SM CLR 12/10 A3017 RMK AO2 SLP229 T01220100
KMRY 210354Z AUTO 25007KT 10SM CLR 13/11 A3016 RMK AO2 SLP226 T01280106
KMRY 210254Z 26011KT 10SM CLR 13/09 A3014 RMK AO2 SLP219 T01330094 53005
KMRY 210154Z 26007KT 10SM CLR 14/09 A3013 RMK AO2 SLP214 T01390094
KMRY 210054Z 27007G15KT 10SM BKN055 14/09 A3012 RMK AO2 SLP212 T01440094
KMRY 202354Z 26009KT 10SM FEW050 15/09 A3013 RMK AO2 SLP215 T01500094 10172 20150 53005
KMRY 202258Z 27010G17KT 10SM FEW050 16/09 A3012 RMK AO2 T01610089
KMRY 202254Z 27012G17KT 10SM BKN050 17/08 A3012 RMK AO2 SLP212 T01670083
KMRY 202154Z 28009KT 10SM CLR 17/09 A3012 RMK AO2 SLP211 T01670094
KMRY 202054Z 27008KT 10SM CLR 17/08 A3012 RMK AO2 SLP209 T01670083 58001
KMRY 201954Z 29010KT 10SM CLR 16/09 A3013 RMK AO2 SLP215 T01610089
KMRY 201854Z 25011KT 10SM CLR 17/07 A3013 RMK AO2 SLP212 T01670067
KMRY 201754Z 27009KT 10SM CLR 16/08 A3012 RMK AO2 SLP210 T01560078 10161 20100 51010
KMRY 201654Z 24005KT 10SM CLR 14/09 A3011 RMK AO2 SLP209 T01440094
KMRY 201554Z 00000KT 10SM CLR 12/11 A3010 RMK AO2 SLP204 T01220111
KMRY 201454Z 00000KT 10SM CLR 10/10 A3009 RMK AO2 SLP200 T01000100 53017
KMRY 201354Z 08004KT 10SM CLR 10/09 A3007 RMK AO2 SLP194 T01000094
KMRY 201254Z 16003KT 10SM CLR 12/11 A3005 RMK AO2 SLP188 T01170106
KMRY 201154Z AUTO 23004KT 10SM CLR 12/11 A3004 RMK AO2 SLP183 60017 70017 T01170106 10167 20117 53010
KMRY 201054Z AUTO 19005KT 10SM SCT070 OVC085 12/11 A3000 RMK AO2 RAE20 SLP171 P0000 T01220111
KMRY 201032Z AUTO 16004KT 10SM SCT008 OVC060 12/12 A3000 RMK AO2 RAE20 P0000 T01220117
KMRY 201003Z AUTO 22006KT 8SM -RA BKN008 OVC036 12/12 A3001 RMK AO2 P0000 T01220117
KMRY 200954Z AUTO 21005KT 4SM RA BR SCT008 BKN021 OVC034 12/12 A3001 RMK AO2 WSHFT 0841 RAE0855B0859 SLP174 P0009 T01170117
KMRY 200949Z AUTO 24007KT 6SM -RA BR SCT008 BKN021 OVC034 12/12 A3001 RMK AO2 WSHFT 0841 RAE0855B0859 P0008
KMRY 200925Z AUTO 27010G17KT 5SM -RA BR BKN005 OVC021 12/12 A3000 RMK AO2 WSHFT 0841 RAE0855B0859 P0006 T01220117
KMRY 200917Z AUTO 27010KT 2 1/2SM RA BR BKN003 OVC019 12/12 A3000 RMK AO2 WSHFT 0841 RAE0855B0859 CIG 002V007 P0005 T01220117
KMRY 200908Z AUTO 27013G20KT 4SM -RA BR BKN004 BKN010 OVC015 12/12 A2999 RMK AO2 WSHFT 0841 RAE0855B0859 P0002 T01220117
KMRY 200857Z AUTO 28013G23KT 10SM BKN008 BKN020 OVC034 12/12 A2998 RMK AO2 WSHFT 0841 RAE55 P0000 T01220117
KMRY 200854Z AUTO 28014G29KT 10SM -RA BKN010 BKN020 OVC037 13/12 A2998 RMK AO2 PK WND 26029/0846 WSHFT 0838 RAB08 PRESRR SLP165 P0008 60008 T01280117 53009
KMRY 200852Z AUTO 28013G29KT 7SM -RA SCT010 BKN020 OVC037 13/12 A2998 RMK AO2 PK WND 26029/0846 WSHFT 0838 RAB08 PRESRR P0008
KMRY 200842Z AUTO 22018G27KT 2SM +RA BR FEW010 BKN027 OVC046 17/15 A2995 RMK AO2 PK WND 23027/0842 RAB08 P0008 T01670150
KMRY 200805Z AUTO 20014G18KT 10SM SCT011 OVC060 17/15 A2993 RMK AO2 T01670150
KMRY 200754Z AUTO 19011G18KT 10SM SCT011 BKN015 OVC060 17/14 A2993 RMK AO2 RAB39E53 SLP147 P0000 T01670144 401830106
KMRY 200739Z AUTO 20011KT 10SM -RA FEW009 OVC015 17/14 A2994 RMK AO2 RAB39 P0000 T01670144
KMRY 200727Z AUTO 20009KT 10SM OVC015 17/14 A2994 RMK AO2 T01670144
KMRY 200654Z AUTO 21010G16KT 10SM BKN011 BKN020 17/14 A2994 RMK AO2 RAE0556B22E31 SLP150 P0000 T01670144
KMRY 200629Z AUTO 18006KT 10SM -RA BKN013 BKN025 OVC065 17/14 A2994 RMK AO2 RAE0556B22 P0000 T01670144
KMRY 200619Z AUTO 19008G15KT 10SM SCT011 BKN017 OVC065 17/14 A2995 RMK AO2 RAE0556 P0000 T01670144
KMRY 200554Z AUTO 19011G17KT 10SM -RA BKN012 BKN023 OVC065 17/14 A2996 RMK AO2 RAB47 SLP156 P0000 60000 T01670144 10172 20161 52002
KMRY 200550Z AUTO 20011G16KT 10SM -RA BKN012 BKN026 OVC065 17/14 A2996 RMK AO2 RAB47 P0000